| time (UTC) | temp F | wind direction | speed knots | gust knots | rain 1hr in | rain 24hr in | rain mn in | humidity % | barometer mb |
| 20260507180458 | 64 | 194 | 2.6 | 7.8 | 0.00 | 0.00 | 0.00 | 51 | 1013.4 |
| 20260507175954 | 62 | 275 | 6.1 | 7.8 | 0.00 | 0.00 | 0.00 | 51 | 1013.7 |
| 20260507175451 | 62 | 206 | 4.3 | 7.0 | 0.00 | 0.00 | 0.00 | 51 | 1013.6 |
| 20260507174949 | 63 | 192 | 3.5 | 4.3 | 0.00 | 0.00 | 0.00 | 52 | 1013.7 |
| 20260507174446 | 63 | 158 | 1.7 | 7.8 | 0.00 | 0.00 | 0.00 | 51 | 1013.9 |
| 20260507173943 | 62 | 186 | 2.6 | 5.2 | 0.00 | 0.00 | 0.00 | 53 | 1013.8 |
| 20260507173440 | 63 | 231 | 1.7 | 5.2 | 0.00 | 0.00 | 0.00 | 53 | 1013.9 |
| 20260507172937 | 63 | 216 | 5.2 | 13.0 | 0.00 | 0.00 | 0.00 | 50 | 1013.9 |
| 20260507172434 | 64 | 170 | 0.9 | 7.0 | 0.00 | 0.00 | 0.00 | 51 | 1013.9 |
| 20260507171930 | 65 | 217 | 2.6 | 7.0 | 0.00 | 0.00 | 0.00 | 49 | 1014.0 |
| 20260507171426 | 64 | 253 | 2.6 | 7.0 | 0.00 | 0.00 | 0.00 | 48 | 1014.3 |
| 20260507170924 | 62 | 248 | 6.1 | 8.7 | 0.00 | 0.00 | 0.00 | 51 | 1014.0 |
| 20260507170420 | 62 | 225 | 4.3 | 7.0 | 0.00 | 0.00 | 0.00 | 52 | 1014.3 |
| 20260507165917 | 63 | 218 | 7.0 | 7.8 | 0.00 | 0.00 | 0.00 | 51 | 1014.4 |
| 20260507165412 | 63 | 257 | 6.1 | 7.8 | 0.00 | 0.00 | 0.00 | 51 | 1014.3 |
| 20260507164908 | 62 | 144 | 2.6 | 8.7 | 0.00 | 0.00 | 0.00 | 55 | 1014.4 |
| 20260507164406 | 63 | 241 | 4.3 | 7.0 | 0.00 | 0.00 | 0.00 | 53 | 1014.7 |
| 20260507163903 | 62 | 176 | 0.9 | 7.8 | 0.00 | 0.00 | 0.00 | 54 | 1014.8 |
| 20260507163400 | 61 | 212 | 2.6 | 9.6 | 0.00 | 0.00 | 0.00 | 53 | 1014.7 |
| 20260507162857 | 61 | 246 | 5.2 | 7.0 | 0.00 | 0.00 | 0.00 | 52 | 1014.6 |
| 20260507162352 | 60 | 194 | 4.3 | 9.6 | 0.00 | 0.00 | 0.00 | 54 | 1014.5 |
| 20260507161849 | 62 | 179 | 1.7 | 7.0 | 0.00 | 0.00 | 0.00 | 54 | 1014.7 |
| 20260507161345 | 61 | 166 | 0.0 | 2.6 | 0.00 | 0.00 | 0.00 | 56 | 1014.8 |
| 20260507160842 | 61 | 193 | 3.5 | 5.2 | 0.00 | 0.00 | 0.00 | 55 | 1014.7 |
| 20260507160338 | 62 | 170 | 1.7 | 5.2 | 0.00 | 0.00 | 0.00 | 54 | 1014.4 |
| 20260507155835 | 61 | 169 | 1.7 | 6.1 | 0.00 | 0.00 | 0.00 | 55 | 1014.7 |
| 20260507155330 | 60 | 168 | 1.7 | 6.1 | 0.00 | 0.00 | 0.00 | 57 | 1014.6 |
| 20260507154827 | 61 | 162 | 0.9 | 5.2 | 0.00 | 0.00 | 0.00 | 54 | 1014.9 |
| 20260507154325 | 62 | 214 | 4.3 | 7.0 | 0.00 | 0.00 | 0.00 | 53 | 1015.0 |
| 20260507153821 | 61 | 283 | 6.1 | 7.8 | 0.00 | 0.00 | 0.00 | 54 | 1015.1 |
| 20260507153318 | 61 | 207 | 2.6 | 7.0 | 0.00 | 0.00 | 0.00 | 52 | 1015.0 |
| 20260507152815 | 62 | 210 | 2.6 | 4.3 | 0.00 | 0.00 | 0.00 | 53 | 1015.0 |
| 20260507152311 | 62 | 213 | 3.5 | 7.0 | 0.00 | 0.00 | 0.00 | 54 | 1014.8 |
| 20260507151807 | 61 | 174 | 0.9 | 5.2 | 0.00 | 0.00 | 0.00 | 54 | 1015.1 |
| 20260507151303 | 60 | 120 | 1.7 | 4.3 | 0.00 | 0.00 | 0.00 | 57 | 1015.3 |
| 20260507150800 | 61 | 269 | 2.6 | 5.2 | 0.00 | 0.00 | 0.00 | 55 | 1015.4 |
| 20260507150257 | 61 | 223 | 3.5 | 7.0 | 0.00 | 0.00 | 0.00 | 54 | 1015.3 |
| 20260507145753 | 61 | 212 | 2.6 | 4.3 | 0.00 | 0.00 | 0.00 | 54 | 1015.4 |
| 20260507145249 | 60 | 215 | 1.7 | 1.7 | 0.00 | 0.00 | 0.00 | 54 | 1015.3 |
| 20260507144747 | 59 | 189 | 0.9 | 2.6 | 0.00 | 0.00 | 0.00 | 56 | 1015.6 |
| 20260507144244 | 60 | 192 | 5.2 | 7.8 | 0.00 | 0.00 | 0.00 | 55 | 1015.4 |
| 20260507143740 | 59 | 223 | 3.5 | 6.1 | 0.00 | 0.00 | 0.00 | 57 | 1015.6 |
| 20260507143238 | 59 | 176 | 1.7 | 5.2 | 0.00 | 0.00 | 0.00 | 57 | 1015.4 |
| 20260507142734 | 59 | 277 | 4.3 | 5.2 | 0.00 | 0.00 | 0.00 | 56 | 1015.2 |
| 20260507142230 | 59 | 320 | 6.1 | 7.0 | 0.00 | 0.00 | 0.00 | 56 | 1015.7 |
| 20260507141727 | 59 | 224 | 1.7 | 5.2 | 0.00 | 0.00 | 0.00 | 58 | 1015.3 |
| 20260507141224 | 58 | 239 | 3.5 | 5.2 | 0.00 | 0.00 | 0.00 | 58 | 1015.6 |
| 20260507140720 | 59 | 188 | 1.7 | 7.0 | 0.00 | 0.00 | 0.00 | 57 | 1015.7 |
| 20260507140218 | 58 | 113 | 0.9 | 4.3 | 0.00 | 0.00 | 0.00 | 61 | 1015.6 |
| 20260507135714 | 57 | 246 | 2.6 | 5.2 | 0.00 | 0.00 | 0.00 | 60 | 1015.4 |
| 20260507135212 | 58 | 223 | 2.6 | 5.2 | 0.00 | 0.00 | 0.00 | 59 | 1015.6 |
| 20260507134708 | 57 | 164 | 0.0 | 4.3 | 0.00 | 0.00 | 0.00 | 61 | 1015.4 |
| 20260507134204 | 57 | 255 | 1.7 | 5.2 | 0.00 | 0.00 | 0.00 | 60 | 1015.7 |
| 20260507133700 | 56 | 178 | 1.7 | 2.6 | 0.00 | 0.00 | 0.00 | 61 | 1015.8 |
| 20260507133158 | 55 | 194 | 1.7 | 2.6 | 0.00 | 0.00 | 0.00 | 64 | 1015.8 |
| 20260507132655 | 54 | 202 | 2.6 | 4.3 | 0.00 | 0.00 | 0.00 | 63 | 1015.4 |
| 20260507132151 | 54 | 210 | 2.6 | 5.2 | 0.00 | 0.00 | 0.00 | 63 | 1015.7 |
| 20260507131648 | 54 | 183 | 2.6 | 5.2 | 0.00 | 0.00 | 0.00 | 65 | 1015.6 |
| 20260507131145 | 54 | 152 | 0.0 | 2.6 | 0.00 | 0.00 | 0.00 | 66 | 1015.6 |
| 20260507130642 | 53 | 210 | 1.7 | 4.3 | 0.00 | 0.00 | 0.00 | 65 | 1015.8 |
| 20260507130140 | 54 | 158 | 0.9 | 2.6 | 0.00 | 0.00 | 0.00 | 67 | 1015.7 |
| 20260507125638 | 53 | 160 | 0.0 | 1.7 | 0.00 | 0.00 | 0.00 | 66 | 1016.0 |
| 20260507125136 | 52 | 120 | 0.9 | 2.6 | 0.00 | 0.00 | 0.00 | 68 | 1016.0 |
| 20260507124632 | 52 | 173 | 0.0 | 2.6 | 0.00 | 0.00 | 0.00 | 67 | 1015.9 |
| 20260507124130 | 52 | 186 | 0.9 | 1.7 | 0.00 | 0.00 | 0.00 | 66 | 1016.0 |
| 20260507123628 | 51 | 197 | 2.6 | 4.3 | 0.00 | 0.00 | 0.00 | 67 | 1015.8 |
| 20260507123125 | 51 | 190 | 1.7 | 1.7 | 0.00 | 0.00 | 0.00 | 67 | 1015.7 |
| 20260507122620 | 51 | 177 | 0.9 | 0.9 | 0.00 | 0.00 | 0.00 | 66 | 1015.9 |
| 20260507122116 | 51 | 212 | 1.7 | 1.7 | 0.00 | 0.00 | 0.00 | 66 | 1015.9 |
| 20260507121612 | 50 | 167 | 0.0 | 0.9 | 0.00 | 0.00 | 0.00 | 69 | 1015.9 |
| 20260507121108 | 48 | 195 | 0.0 | 0.9 | 0.00 | 0.00 | 0.00 | 70 | 1016.1 |
| 20260507120604 | 48 | 199 | 0.9 | 2.6 | 0.00 | 0.00 | 0.00 | 71 | 1015.8 |
| 20260507120101 | 47 | 195 | 0.9 | 1.7 | 0.00 | 0.00 | 0.00 | 72 | 1015.6 |
| 20260507115557 | 46 | 194 | 0.0 | 0.9 | 0.00 | 0.00 | 0.00 | 72 | 1015.8 |
| 20260507115053 | 46 | 197 | 0.0 | 0.0 | 0.00 | 0.00 | 0.00 | 74 | 1015.6 |
| 20260507114549 | 45 | 197 | 0.0 | 0.9 | 0.00 | 0.00 | 0.00 | 74 | 1015.7 |
| 20260507114046 | 45 | 197 | 0.0 | 0.0 | 0.00 | 0.00 | 0.00 | 74 | 1015.8 |
| 20260507113543 | 45 | 197 | 0.0 | 0.0 | 0.00 | 0.00 | 0.00 | 73 | 1016.0 |
| 20260507113041 | 45 | 197 | 0.0 | 0.0 | 0.00 | 0.00 | 0.00 | 73 | 1015.7 |
| 20260507112538 | 45 | 197 | 0.0 | 0.0 | 0.00 | 0.00 | 0.00 | 73 | 1015.7 |
| 20260507112035 | 45 | 197 | 0.0 | 0.0 | 0.00 | 0.00 | 0.00 | 73 | 1015.7 |
| 20260507111532 | 45 | 197 | 0.0 | 0.9 | 0.00 | 0.00 | 0.00 | 72 | 1015.7 |
| 20260507111029 | 45 | 197 | 0.0 | 0.0 | 0.00 | 0.00 | 0.00 | 72 | 1015.6 |
| 20260507110525 | 45 | 197 | 0.0 | 0.0 | 0.00 | 0.00 | 0.00 | 72 | 1015.6 |
| 20260507110021 | 45 | 197 | 0.0 | 0.9 | 0.00 | 0.00 | 0.00 | 71 | 1015.7 |
| 20260507105519 | 45 | 197 | 0.0 | 0.9 | 0.00 | 0.00 | 0.00 | 71 | 1015.6 |
| 20260507105014 | 45 | 197 | 0.0 | 0.0 | 0.00 | 0.00 | 0.00 | 71 | 1015.8 |
| 20260507104513 | 45 | 197 | 0.0 | 0.0 | 0.00 | 0.00 | 0.00 | 70 | 1015.9 |
| 20260507104008 | 45 | 197 | 0.0 | 0.0 | 0.00 | 0.00 | 0.00 | 69 | 1016.0 |
| 20260507103505 | 45 | 198 | 0.9 | 1.7 | 0.00 | 0.00 | 0.00 | 68 | 1015.8 |
| 20260507103001 | 45 | 178 | 0.0 | 0.0 | 0.00 | 0.00 | 0.00 | 69 | 1015.8 |
| 20260507102458 | 45 | 178 | 0.0 | 0.9 | 0.00 | 0.00 | 0.00 | 68 | 1015.7 |
| 20260507101954 | 45 | 195 | 0.0 | 0.0 | 0.00 | 0.00 | 0.00 | 68 | 1015.6 |
| 20260507101449 | 46 | 196 | 0.0 | 0.0 | 0.00 | 0.00 | 0.00 | 67 | 1016.0 |
| 20260507100946 | 46 | 194 | 0.0 | 0.0 | 0.00 | 0.00 | 0.00 | 66 | 1015.8 |
| 20260507100444 | 46 | 194 | 0.9 | 0.9 | 0.00 | 0.00 | 0.00 | 66 | 1015.8 |
| 20260507095942 | 46 | 194 | 0.0 | 0.9 | 0.00 | 0.00 | 0.00 | 66 | 1015.9 |
| 20260507095439 | 46 | 194 | 0.0 | 0.9 | 0.00 | 0.00 | 0.00 | 64 | 1016.0 |
| 20260507094936 | 46 | 195 | 0.0 | 0.0 | 0.00 | 0.00 | 0.00 | 65 | 1015.8 |
| 20260507094432 | 45 | 195 | 0.0 | 0.9 | 0.00 | 0.00 | 0.00 | 64 | 1016.1 |
| 20260507093929 | 46 | 195 | 0.0 | 0.0 | 0.00 | 0.00 | 0.00 | 65 | 1016.0 |
| 20260507093427 | 46 | 195 | 0.0 | 0.0 | 0.00 | 0.00 | 0.00 | 64 | 1016.1 |
| 20260507092925 | 46 | 195 | 0.0 | 0.0 | 0.00 | 0.00 | 0.00 | 64 | 1016.1 |
| 20260507092421 | 46 | 195 | 0.0 | 0.0 | 0.00 | 0.00 | 0.00 | 65 | 1016.0 |
| 20260507091918 | 45 | 193 | 0.0 | 0.0 | 0.00 | 0.00 | 0.00 | 65 | 1016.1 |
| 20260507091414 | 46 | 193 | 0.0 | 0.0 | 0.00 | 0.00 | 0.00 | 66 | 1016.2 |
| 20260507090910 | 46 | 193 | 0.0 | 0.0 | 0.00 | 0.00 | 0.00 | 65 | 1016.1 |
| 20260507090406 | 46 | 193 | 0.0 | 0.0 | 0.00 | 0.00 | 0.00 | 66 | 1016.1 |
| 20260507085903 | 45 | 192 | 0.0 | 0.0 | 0.00 | 0.00 | 0.00 | 66 | 1016.2 |
| 20260507085400 | 45 | 192 | 0.0 | 0.0 | 0.00 | 0.00 | 0.00 | 66 | 1016.1 |
| 20260507084858 | 45 | 192 | 0.0 | 0.0 | 0.00 | 0.00 | 0.00 | 67 | 1016.0 |
| 20260507084354 | 45 | 192 | 0.0 | 0.0 | 0.00 | 0.00 | 0.00 | 67 | 1016.3 |
| 20260507083851 | 45 | 192 | 0.0 | 0.0 | 0.00 | 0.00 | 0.00 | 68 | 1016.2 |
| 20260507083347 | 45 | 192 | 0.0 | 0.0 | 0.00 | 0.00 | 0.00 | 69 | 1016.3 |
| 20260507082844 | 45 | 192 | 0.0 | 0.0 | 0.00 | 0.00 | 0.00 | 67 | 1016.3 |
| 20260507082339 | 44 | 192 | 0.0 | 0.0 | 0.00 | 0.00 | 0.00 | 68 | 1016.2 |
| 20260507081837 | 44 | 192 | 0.0 | 0.0 | 0.00 | 0.00 | 0.00 | 70 | 1016.2 |
| 20260507081333 | 44 | 192 | 0.0 | 0.0 | 0.00 | 0.00 | 0.00 | 69 | 1016.3 |
| 20260507080830 | 44 | 192 | 0.0 | 0.0 | 0.00 | 0.00 | 0.00 | 70 | 1016.1 |
| 20260507080326 | 44 | 192 | 0.0 | 0.0 | 0.00 | 0.00 | 0.00 | 70 | 1016.2 |
| 20260507075821 | 44 | 192 | 0.0 | 0.0 | 0.00 | 0.00 | 0.00 | 71 | 1016.1 |
| 20260507075318 | 43 | 192 | 0.0 | 0.0 | 0.00 | 0.00 | 0.00 | 72 | 1015.9 |
| 20260507074814 | 43 | 192 | 0.0 | 0.0 | 0.00 | 0.00 | 0.00 | 73 | 1016.1 |
| 20260507074312 | 44 | 192 | 0.0 | 0.0 | 0.00 | 0.00 | 0.00 | 71 | 1016.0 |
| 20260507073809 | 44 | 192 | 0.0 | 0.0 | 0.00 | 0.00 | 0.00 | 70 | 1016.1 |
| 20260507073306 | 44 | 192 | 0.0 | 0.0 | 0.00 | 0.00 | 0.00 | 71 | 1016.2 |
| 20260507072803 | 44 | 192 | 0.0 | 0.0 | 0.00 | 0.00 | 0.00 | 72 | 1016.3 |
| 20260507072300 | 44 | 192 | 0.0 | 0.0 | 0.00 | 0.00 | 0.00 | 71 | 1016.3 |
| 20260507071757 | 44 | 192 | 0.0 | 0.0 | 0.00 | 0.00 | 0.00 | 71 | 1016.2 |
| 20260507071254 | 45 | 192 | 0.0 | 0.0 | 0.00 | 0.00 | 0.00 | 69 | 1016.5 |
| 20260507070751 | 45 | 192 | 0.0 | 0.0 | 0.00 | 0.00 | 0.00 | 69 | 1016.6 |
| 20260507070248 | 46 | 192 | 0.0 | 0.0 | 0.00 | 0.00 | 0.00 | 68 | 1016.5 |
| 20260507065744 | 46 | 192 | 0.0 | 0.0 | 0.00 | 0.00 | 0.00 | 68 | 1016.6 |
| 20260507065241 | 46 | 192 | 0.0 | 0.9 | 0.00 | 0.00 | 0.00 | 68 | 1016.7 |
| 20260507064738 | 46 | 192 | 0.0 | 0.9 | 0.00 | 0.00 | 0.00 | 69 | 1016.8 |
| 20260507064237 | 46 | 192 | 0.0 | 0.0 | 0.00 | 0.00 | 0.00 | 69 | 1016.8 |
| 20260507063734 | 46 | 192 | 0.0 | 0.0 | 0.00 | 0.00 | 0.00 | 70 | 1016.9 |
| 20260507063231 | 46 | 192 | 0.0 | 0.0 | 0.00 | 0.00 | 0.00 | 72 | 1016.7 |
| 20260507062728 | 46 | 192 | 0.0 | 0.0 | 0.00 | 0.00 | 0.00 | 71 | 1017.0 |
| 20260507062225 | 46 | 192 | 0.0 | 0.0 | 0.00 | 0.00 | 0.00 | 71 | 1016.7 |
| 20260507061723 | 46 | 192 | 0.0 | 0.0 | 0.00 | 0.00 | 0.00 | 70 | 1016.8 |
| 20260507061221 | 46 | 192 | 0.0 | 0.0 | 0.00 | 0.00 | 0.00 | 71 | 1016.8 |
| 20260507060719 | 46 | 192 | 0.0 | 0.0 | 0.00 | 0.00 | 0.00 | 71 | 1016.9 |
| 20260507060215 | 46 | 192 | 0.0 | 0.0 | 0.00 | 0.00 | 0.00 | 70 | 1016.8 |
| 20260507055711 | 46 | 192 | 0.0 | 0.0 | 0.00 | 0.00 | 0.00 | 71 | 1016.7 |
| 20260507055207 | 46 | 192 | 0.0 | 0.0 | 0.00 | 0.00 | 0.00 | 69 | 1016.6 |
| 20260507054703 | 46 | 192 | 0.0 | 0.0 | 0.00 | 0.00 | 0.00 | 71 | 1016.8 |
| 20260507054200 | 45 | 192 | 0.0 | 0.0 | 0.00 | 0.00 | 0.00 | 70 | 1017.0 |
| 20260507053658 | 46 | 192 | 0.0 | 0.0 | 0.00 | 0.00 | 0.00 | 69 | 1016.7 |
| 20260507053156 | 46 | 192 | 0.0 | 0.0 | 0.00 | 0.00 | 0.00 | 69 | 1016.7 |
| 20260507052654 | 46 | 192 | 0.0 | 0.0 | 0.00 | 0.00 | 0.00 | 72 | 1016.8 |
| 20260507052150 | 46 | 192 | 0.0 | 0.0 | 0.00 | 0.00 | 0.00 | 67 | 1016.9 |
| 20260507051647 | 46 | 192 | 0.0 | 0.0 | 0.00 | 0.00 | 0.00 | 69 | 1017.1 |
| 20260507051144 | 45 | 192 | 0.0 | 0.0 | 0.00 | 0.00 | 0.00 | 71 | 1016.7 |
| 20260507050641 | 45 | 192 | 0.0 | 0.9 | 0.00 | 0.00 | 0.00 | 72 | 1016.9 |
| 20260507050138 | 45 | 192 | 0.0 | 0.0 | 0.00 | 0.00 | 0.00 | 70 | 1016.8 |
| 20260507045635 | 45 | 192 | 0.0 | 0.9 | 0.00 | 0.01 | 0.01 | 72 | 1016.8 |
| 20260507045131 | 45 | 192 | 0.0 | 0.9 | 0.00 | 0.01 | 0.01 | 72 | 1016.7 |
| 20260507044628 | 45 | 192 | 0.0 | 0.0 | 0.00 | 0.01 | 0.01 | 73 | 1016.6 |
| 20260507044125 | 45 | 192 | 0.0 | 0.9 | 0.00 | 0.01 | 0.01 | 73 | 1016.9 |
| 20260507043621 | 45 | 192 | 0.0 | 0.0 | 0.00 | 0.01 | 0.01 | 73 | 1016.9 |
| 20260507043118 | 45 | 192 | 0.0 | 0.9 | 0.00 | 0.01 | 0.01 | 72 | 1016.7 |
| 20260507042614 | 44 | 192 | 0.0 | 0.0 | 0.00 | 0.01 | 0.01 | 73 | 1016.9 |
| 20260507042109 | 44 | 192 | 0.0 | 0.0 | 0.00 | 0.01 | 0.01 | 75 | 1016.8 |
| 20260507041606 | 44 | 192 | 0.0 | 0.0 | 0.00 | 0.01 | 0.01 | 76 | 1016.9 |
| 20260507041104 | 44 | 192 | 0.0 | 0.0 | 0.00 | 0.01 | 0.01 | 75 | 1016.8 |
| 20260507040600 | 44 | 192 | 0.0 | 0.0 | 0.00 | 0.01 | 0.01 | 75 | 1017.0 |
| 20260507040057 | 44 | 192 | 0.9 | 0.9 | 0.00 | 0.01 | 0.01 | 75 | 1016.9 |
| 20260507035553 | 44 | 192 | 0.0 | 0.9 | 0.00 | 0.01 | 0.01 | 76 | 1017.0 |
| 20260507035049 | 44 | 192 | 0.0 | 0.0 | 0.00 | 0.01 | 0.01 | 76 | 1017.2 |
| 20260507034546 | 44 | 192 | 0.0 | 0.0 | 0.00 | 0.01 | 0.01 | 75 | 1017.0 |
| 20260507034044 | 44 | 192 | 0.0 | 0.0 | 0.00 | 0.01 | 0.01 | 75 | 1017.1 |
| 20260507033542 | 44 | 192 | 0.0 | 0.0 | 0.00 | 0.01 | 0.01 | 73 | 1017.1 |
| 20260507033038 | 44 | 193 | 0.0 | 0.0 | 0.00 | 0.01 | 0.01 | 74 | 1017.0 |
| 20260507032535 | 44 | 192 | 0.0 | 0.0 | 0.00 | 0.01 | 0.01 | 74 | 1016.9 |
| 20260507032032 | 44 | 192 | 0.0 | 0.0 | 0.00 | 0.01 | 0.01 | 73 | 1016.8 |
| 20260507031528 | 44 | 192 | 0.0 | 0.0 | 0.00 | 0.01 | 0.01 | 75 | 1017.0 |
| 20260507031025 | 44 | 193 | 0.0 | 0.0 | 0.00 | 0.01 | 0.01 | 74 | 1016.9 |
| 20260507030522 | 44 | 192 | 0.0 | 0.0 | 0.00 | 0.01 | 0.01 | 74 | 1016.9 |
| 20260507030020 | 45 | 192 | 0.0 | 0.0 | 0.00 | 0.01 | 0.01 | 72 | 1017.0 |
| 20260507025516 | 45 | 192 | 0.0 | 0.0 | 0.00 | 0.01 | 0.01 | 71 | 1017.1 |
| 20260507025014 | 45 | 192 | 0.0 | 0.0 | 0.00 | 0.01 | 0.01 | 71 | 1017.1 |
| 20260507024512 | 45 | 192 | 0.0 | 0.0 | 0.00 | 0.01 | 0.01 | 71 | 1017.0 |
| 20260507024008 | 46 | 193 | 0.0 | 0.0 | 0.00 | 0.01 | 0.01 | 69 | 1016.8 |
| 20260507023504 | 46 | 192 | 0.0 | 0.0 | 0.00 | 0.01 | 0.01 | 69 | 1016.7 |
| 20260507023002 | 46 | 193 | 0.0 | 0.0 | 0.00 | 0.01 | 0.01 | 70 | 1016.7 |
| 20260507022458 | 46 | 192 | 0.0 | 0.0 | 0.00 | 0.01 | 0.01 | 68 | 1016.6 |
| 20260507021954 | 46 | 193 | 0.0 | 0.0 | 0.00 | 0.01 | 0.01 | 63 | 1016.6 |
| 20260507021450 | 47 | 193 | 0.0 | 0.0 | 0.00 | 0.01 | 0.01 | 64 | 1016.7 |
| 20260507020947 | 47 | 193 | 0.0 | 0.9 | 0.00 | 0.01 | 0.01 | 65 | 1016.4 |
| 20260507020444 | 47 | 193 | 0.9 | 0.9 | 0.00 | 0.01 | 0.01 | 66 | 1016.5 |
| 20260507015941 | 48 | 193 | 0.9 | 0.9 | 0.00 | 0.01 | 0.01 | 63 | 1016.4 |
| 20260507015439 | 48 | 193 | 0.9 | 0.9 | 0.00 | 0.01 | 0.01 | 60 | 1016.5 |
| 20260507014936 | 48 | 193 | 0.0 | 0.9 | 0.00 | 0.01 | 0.01 | 60 | 1016.4 |
| 20260507014433 | 49 | 193 | 0.0 | 0.9 | 0.00 | 0.01 | 0.01 | 57 | 1016.5 |
| 20260507013929 | 49 | 193 | 0.0 | 0.9 | 0.00 | 0.01 | 0.01 | 55 | 1016.3 |
| 20260507013426 | 50 | 193 | 0.0 | 0.0 | 0.00 | 0.01 | 0.01 | 55 | 1016.5 |
| 20260507012923 | 51 | 193 | 0.0 | 0.0 | 0.00 | 0.01 | 0.01 | 53 | 1016.1 |
| 20260507012420 | 52 | 193 | 0.0 | 0.0 | 0.00 | 0.01 | 0.01 | 48 | 1016.2 |
| 20260507011917 | 53 | 193 | 0.0 | 0.9 | 0.00 | 0.01 | 0.01 | 51 | 1016.1 |
| 20260507011414 | 53 | 193 | 0.0 | 0.9 | 0.00 | 0.01 | 0.01 | 45 | 1016.0 |
| 20260507010913 | 54 | 193 | 0.0 | 0.9 | 0.00 | 0.01 | 0.01 | 47 | 1016.0 |
| 20260507010409 | 55 | 193 | 0.0 | 0.9 | 0.00 | 0.01 | 0.01 | 38 | 1016.0 |
| 20260507005906 | 55 | 194 | 0.0 | 0.9 | 0.00 | 0.01 | 0.01 | 37 | 1016.0 |
| 20260507005403 | 56 | 194 | 0.0 | 0.9 | 0.00 | 0.01 | 0.01 | 38 | 1016.0 |
| 20260507004900 | 56 | 196 | 0.0 | 1.7 | 0.00 | 0.01 | 0.01 | 36 | 1015.9 |
| 20260507004357 | 56 | 177 | 0.9 | 1.7 | 0.00 | 0.01 | 0.01 | 36 | 1016.0 |
| 20260507003854 | 57 | 193 | 0.0 | 1.7 | 0.00 | 0.01 | 0.01 | 36 | 1015.9 |
| 20260507003349 | 57 | 193 | 0.0 | 0.9 | 0.00 | 0.01 | 0.01 | 37 | 1016.0 |
| 20260507002844 | 57 | 230 | 1.7 | 1.7 | 0.00 | 0.01 | 0.01 | 34 | 1015.7 |
| 20260507002341 | 57 | 280 | 1.7 | 2.6 | 0.00 | 0.01 | 0.01 | 36 | 1016.0 |
| 20260507001838 | 57 | 171 | 0.9 | 1.7 | 0.00 | 0.01 | 0.01 | 35 | 1016.0 |
| 20260507001335 | 57 | 211 | 1.7 | 2.6 | 0.00 | 0.01 | 0.01 | 33 | 1015.8 |
| 20260507000831 | 58 | 166 | 0.0 | 2.6 | 0.00 | 0.01 | 0.01 | 34 | 1015.9 |
| 20260507000328 | 58 | 159 | 0.0 | 1.7 | 0.00 | 0.01 | 0.01 | 37 | 1015.9 |
| 20260506235824 | 58 | 148 | 0.0 | 0.9 | 0.00 | 0.01 | 0.01 | 36 | 1015.9 |
| 20260506235320 | 58 | 224 | 1.7 | 2.6 | 0.00 | 0.01 | 0.01 | 33 | 1015.8 |
| 20260506234816 | 59 | 185 | 0.0 | 1.7 | 0.00 | 0.01 | 0.01 | 34 | 1016.1 |
| 20260506234314 | 60 | 152 | 0.9 | 1.7 | 0.00 | 0.01 | 0.01 | 32 | 1016.2 |
| 20260506233812 | 61 | 299 | 0.9 | 2.6 | 0.00 | 0.01 | 0.01 | 33 | 1015.8 |
| 20260506233307 | 61 | 233 | 1.7 | 1.7 | 0.00 | 0.01 | 0.01 | 32 | 1016.1 |
| 20260506232804 | 62 | 219 | 1.7 | 2.6 | 0.00 | 0.01 | 0.01 | 32 | 1015.9 |
| 20260506232300 | 62 | 190 | 0.0 | 4.3 | 0.00 | 0.01 | 0.01 | 32 | 1015.8 |
| 20260506231757 | 62 | 228 | 1.7 | 2.6 | 0.00 | 0.01 | 0.01 | 28 | 1016.0 |
| 20260506231255 | 61 | 307 | 2.6 | 2.6 | 0.00 | 0.01 | 0.01 | 29 | 1016.0 |
| 20260506230752 | 61 | 286 | 1.7 | 6.1 | 0.00 | 0.01 | 0.01 | 29 | 1016.0 |
| 20260506230249 | 61 | 262 | 3.5 | 5.2 | 0.00 | 0.01 | 0.01 | 30 | 1015.8 |
| 20260506225745 | 62 | 20 | 4.3 | 5.2 | 0.00 | 0.01 | 0.01 | 32 | 1015.8 |
| 20260506225242 | 61 | 285 | 2.6 | 4.3 | 0.00 | 0.01 | 0.01 | 31 | 1015.9 |
| 20260506224738 | 61 | 58 | 2.6 | 5.2 | 0.00 | 0.01 | 0.01 | 33 | 1015.9 |
| 20260506224236 | 61 | 325 | 3.5 | 4.3 | 0.00 | 0.01 | 0.01 | 30 | 1016.0 |
| 20260506223732 | 62 | 240 | 2.6 | 5.2 | 0.00 | 0.01 | 0.01 | 31 | 1016.1 |
| 20260506223228 | 62 | 228 | 3.5 | 5.2 | 0.00 | 0.01 | 0.01 | 30 | 1016.3 |
| 20260506222725 | 62 | 194 | 1.7 | 2.6 | 0.00 | 0.01 | 0.01 | 31 | 1016.1 |
| 20260506222220 | 62 | 286 | 2.6 | 5.2 | 0.00 | 0.01 | 0.01 | 33 | 1016.2 |
| 20260506221719 | 62 | 252 | 2.6 | 6.1 | 0.00 | 0.01 | 0.01 | 30 | 1016.3 |
| 20260506221217 | 62 | 208 | 1.7 | 2.6 | 0.00 | 0.01 | 0.01 | 33 | 1016.0 |
| 20260506220714 | 61 | 144 | 0.9 | 6.1 | 0.00 | 0.01 | 0.01 | 32 | 1016.1 |
| 20260506220208 | 60 | 173 | 0.0 | 1.7 | 0.00 | 0.01 | 0.01 | 35 | 1016.2 |
| 20260506215705 | 60 | 300 | 1.7 | 6.1 | 0.00 | 0.01 | 0.01 | 36 | 1016.1 |
| 20260506215200 | 60 | 249 | 2.6 | 5.2 | 0.00 | 0.01 | 0.01 | 33 | 1016.4 |
| 20260506214657 | 60 | 252 | 1.7 | 2.6 | 0.00 | 0.01 | 0.01 | 33 | 1016.3 |
| 20260506214155 | 60 | 222 | 3.5 | 6.1 | 0.00 | 0.01 | 0.01 | 31 | 1016.5 |
| 20260506213653 | 60 | 194 | 0.9 | 6.1 | 0.00 | 0.01 | 0.01 | 35 | 1016.1 |
| 20260506213150 | 60 | 202 | 2.6 | 6.1 | 0.00 | 0.01 | 0.01 | 31 | 1016.4 |
| 20260506212647 | 61 | 202 | 0.9 | 2.6 | 0.00 | 0.01 | 0.01 | 34 | 1016.4 |
| 20260506212142 | 60 | 243 | 1.7 | 4.3 | 0.00 | 0.01 | 0.01 | 33 | 1016.6 |
| 20260506211638 | 60 | 20 | 3.5 | 7.0 | 0.00 | 0.01 | 0.01 | 36 | 1016.5 |
| 20260506211134 | 61 | 267 | 2.6 | 7.0 | 0.00 | 0.01 | 0.01 | 32 | 1016.6 |
| 20260506210631 | 60 | 241 | 2.6 | 4.3 | 0.00 | 0.01 | 0.01 | 33 | 1016.6 |
| 20260506210128 | 60 | 65 | 1.7 | 4.3 | 0.00 | 0.01 | 0.01 | 34 | 1016.9 |
| 20260506205625 | 60 | 164 | 0.9 | 4.3 | 0.00 | 0.01 | 0.01 | 34 | 1016.9 |
| 20260506205120 | 60 | 29 | 3.5 | 7.0 | 0.00 | 0.01 | 0.01 | 34 | 1016.9 |
| 20260506204618 | 59 | 109 | 0.9 | 1.7 | 0.00 | 0.01 | 0.01 | 36 | 1017.2 |
| 20260506204115 | 59 | 126 | 3.5 | 5.2 | 0.00 | 0.01 | 0.01 | 35 | 1017.3 |
| 20260506203613 | 59 | 218 | 3.5 | 5.2 | 0.00 | 0.01 | 0.01 | 32 | 1017.0 |
| 20260506203109 | 59 | 315 | 1.7 | 5.2 | 0.00 | 0.01 | 0.01 | 36 | 1017.3 |
| 20260506202607 | 58 | 242 | 3.5 | 5.2 | 0.00 | 0.01 | 0.01 | 35 | 1017.5 |
| 20260506202103 | 59 | 133 | 2.6 | 5.2 | 0.00 | 0.01 | 0.01 | 33 | 1017.3 |
| 20260506201601 | 59 | 138 | 1.7 | 4.3 | 0.00 | 0.01 | 0.01 | 37 | 1017.2 |
| 20260506201057 | 59 | 252 | 3.5 | 5.2 | 0.00 | 0.01 | 0.01 | 33 | 1017.6 |
| 20260506200554 | 57 | 295 | 3.5 | 4.3 | 0.00 | 0.01 | 0.01 | 33 | 1017.1 |
| 20260506200051 | 58 | 180 | 2.6 | 5.2 | 0.00 | 0.01 | 0.01 | 32 | 1017.4 |
| 20260506195547 | 57 | 73 | 5.2 | 7.0 | 0.00 | 0.01 | 0.01 | 36 | 1017.5 |
| 20260506195043 | 58 | 15 | 4.3 | 6.1 | 0.00 | 0.01 | 0.01 | 37 | 1017.7 |
| 20260506194541 | 57 | 158 | 0.0 | 0.9 | 0.00 | 0.01 | 0.01 | 37 | 1017.5 |
| 20260506194037 | 57 | 153 | 0.9 | 4.3 | 0.00 | 0.01 | 0.01 | 36 | 1017.8 |
| 20260506193535 | 57 | 121 | 1.7 | 4.3 | 0.00 | 0.01 | 0.01 | 40 | 1017.7 |
| 20260506193032 | 57 | 287 | 2.6 | 7.0 | 0.00 | 0.01 | 0.01 | 33 | 1017.6 |
| 20260506192529 | 57 | 183 | 0.9 | 2.6 | 0.00 | 0.01 | 0.01 | 35 | 1017.7 |
| 20260506192025 | 58 | 36 | 2.6 | 2.6 | 0.00 | 0.01 | 0.01 | 37 | 1017.7 |
| 20260506191522 | 58 | 255 | 0.9 | 7.0 | 0.00 | 0.01 | 0.01 | 36 | 1017.7 |
| 20260506191018 | 58 | 127 | 2.6 | 4.3 | 0.00 | 0.01 | 0.01 | 35 | 1017.6 |
| 20260506190515 | 58 | 144 | 1.7 | 4.3 | 0.00 | 0.01 | 0.01 | 37 | 1017.7 |
| 20260506190012 | 57 | 162 | 2.6 | 2.6 | 0.00 | 0.01 | 0.01 | 33 | 1017.8 |
| 20260506185509 | 57 | 240 | 2.6 | 4.3 | 0.00 | 0.01 | 0.01 | 34 | 1018.0 |
| 20260506185006 | 58 | 238 | 3.5 | 6.1 | 0.00 | 0.01 | 0.01 | 33 | 1017.9 |
| 20260506184503 | 58 | 170 | 0.9 | 6.1 | 0.00 | 0.01 | 0.01 | 30 | 1018.0 |
| 20260506184000 | 57 | 278 | 3.5 | 4.3 | 0.00 | 0.01 | 0.01 | 32 | 1017.9 |
| 20260506183455 | 58 | 99 | 2.6 | 5.2 | 0.00 | 0.01 | 0.01 | 37 | 1017.9 |
| 20260506182952 | 57 | 212 | 0.9 | 4.3 | 0.00 | 0.01 | 0.01 | 34 | 1017.8 |
| 20260506182450 | 57 | 212 | 2.6 | 6.1 | 0.00 | 0.01 | 0.01 | 34 | 1017.9 |
| 20260506181947 | 57 | 193 | 0.9 | 1.7 | 0.00 | 0.01 | 0.01 | 37 | 1018.1 |
| 20260506181445 | 57 | 207 | 0.9 | 5.2 | 0.00 | 0.01 | 0.01 | 35 | 1018.3 |
| 20260506180941 | 56 | 44 | 1.7 | 2.6 | 0.00 | 0.01 | 0.01 | 37 | 1018.3 |